Time;durP1;ratioP1;P1;durP2;ratioP2;P2;SDS_P1;SDS_P2;PMS_P1;PMS_P2;Temp;Humidity;BMP_temperature;BMP_pressure;BME280_temperature;BME280_humidity;BME280_pressure;Samples;Min_cycle;Max_cycle;Signal;HPM_P1;HPM_P2
2023/09/04 00:01:17;;;;;;;1.63;1.53;;;;;;;17.52;64.43;99968.72;4981241;28;40750;-83
2023/09/04 00:03:46;;;;;;;3.47;1.97;;;;;;;17.51;64.33;99976.88;4981363;28;41665;-81
2023/09/04 00:06:13;;;;;;;1.90;1.63;;;;;;;17.57;64.78;99987.97;4980272;28;41039;-80
2023/09/04 00:08:41;;;;;;;1.50;1.40;;;;;;;17.55;65.31;99994.44;4996468;28;41105;-80
2023/09/04 00:11:08;;;;;;;2.60;1.67;;;;;;;17.50;65.17;99994.75;4996158;28;40374;-83
2023/09/04 00:13:36;;;;;;;3.37;1.73;;;;;;;17.47;65.16;99992.31;4996477;28;42799;-83
2023/09/04 00:16:04;;;;;;;1.60;1.50;;;;;;;17.30;65.21;99960.56;4979658;28;41323;-83
2023/09/04 00:18:33;;;;;;;2.03;1.40;;;;;;;17.38;65.59;99978.72;4996672;28;40702;-81
2023/09/04 00:21:01;;;;;;;1.90;1.70;;;;;;;17.35;66.10;99971.78;4980449;28;41823;-84
2023/09/04 00:23:28;;;;;;;2.23;1.90;;;;;;;17.20;65.61;99956.81;5018854;28;43166;-82
2023/09/04 00:25:56;;;;;;;1.67;1.40;;;;;;;17.28;65.77;99980.38;5002264;28;42499;-83
2023/09/04 00:28:24;;;;;;;2.00;1.80;;;;;;;17.17;66.08;99968.63;4984752;28;38941;-81
2023/09/04 00:30:51;;;;;;;1.63;1.53;;;;;;;17.13;66.29;99967.13;5001280;28;43049;-82
2023/09/04 00:33:19;;;;;;;2.00;1.80;;;;;;;17.20;67.07;99976.41;4985053;28;43373;-81
2023/09/04 00:35:49;;;;;;;1.97;1.70;;;;;;;17.17;66.69;99975.78;4984677;28;41398;-81
2023/09/04 00:38:16;;;;;;;1.97;1.83;;;;;;;16.96;66.93;99947.88;4985582;28;40144;-81
2023/09/04 00:40:44;;;;;;;1.57;1.47;;;;;;;17.06;66.78;99970.34;4996900;28;40679;-83
2023/09/04 00:43:11;;;;;;;2.13;1.63;;;;;;;17.11;67.35;99985.09;4997707;28;42800;-83
2023/09/04 00:45:39;;;;;;;3.03;1.93;;;;;;;17.08;67.55;99976.44;4980593;28;41221;-83
2023/09/04 00:48:07;;;;;;;1.70;1.47;;;;;;;17.06;67.76;99976.53;4981436;28;39000;-81
2023/09/04 00:50:35;;;;;;;2.00;1.80;;;;;;;17.05;68.16;99979.34;4997232;28;41722;-80
2023/09/04 00:53:07;;;;;;;1.83;1.73;;;;;;;17.04;67.55;99980.31;4997159;28;43724;-81
2023/09/04 00:55:35;;;;;;;1.80;1.70;;;;;;;17.00;67.87;99982.34;4980536;28;40992;-83
2023/09/04 00:58:04;;;;;;;2.10;1.90;;;;;;;16.96;67.67;99974.63;4997347;28;39641;-84
2023/09/04 01:00:32;;;;;;;2.37;2.17;;;;;;;16.96;67.97;99974.63;4980160;28;41046;-80
2023/09/04 01:03:02;;;;;;;1.90;1.63;;;;;;;16.93;68.11;99980.22;4980753;28;42060;-83
2023/09/04 01:05:31;;;;;;;2.43;2.23;;;;;;;16.83;70.00;99959.44;4996109;28;43242;-80
2023/09/04 01:08:01;;;;;;;2.17;1.93;;;;;;;16.76;69.94;99952.81;4979114;28;40028;-86
2023/09/04 01:10:35;;;;;;;2.13;1.90;;;;;;;16.73;70.31;99947.69;4995534;28;41979;-80
2023/09/04 01:13:10;;;;;;;1.83;1.70;;;;;;;16.53;70.12;99929.47;4979638;28;44375;-82
2023/09/04 01:15:38;;;;;;;1.83;1.73;;;;;;;16.67;69.82;99963.31;4979040;28;41338;-82
2023/09/04 01:18:06;;;;;;;2.20;2.00;;;;;;;16.75;70.40;99979.69;4995638;28;40131;-81
2023/09/04 01:20:36;;;;;;;3.07;2.40;;;;;;;16.72;71.18;99988.78;4978805;28;42027;-84
2023/09/04 01:23:04;;;;;;;2.67;2.00;;;;;;;16.59;70.94;99960.28;4979479;28;42995;-81
2023/09/04 01:25:42;;;;;;;2.10;1.90;;;;;;;16.65;71.27;99983.97;5012182;28;42020;-80
2023/09/04 01:28:19;;;;;;;2.60;2.00;;;;;;;16.61;71.43;99979.75;4992543;28;40771;-82
2023/09/04 01:30:55;;;;;;;3.33;1.80;;;;;;;16.46;71.18;99966.47;4978998;28;41527;-82
2023/09/04 01:33:29;;;;;;;2.40;1.90;;;;;;;16.52;71.71;99983.94;4994727;28;42747;-81
2023/09/04 01:36:04;;;;;;;3.80;1.87;;;;;;;16.49;71.43;99984.13;4994890;28;43261;-85
2023/09/04 01:38:33;;;;;;;1.80;1.70;;;;;;;16.35;71.00;99960.16;4979774;28;40376;-85
2023/09/04 01:41:04;;;;;;;2.30;2.10;;;;;;;16.44;71.74;99970.25;5013731;28;42504;-81
2023/09/04 01:43:32;;;;;;;2.23;2.03;;;;;;;16.40;71.06;99968.72;4980259;28;41958;-80
2023/09/04 01:46:00;;;;;;;1.80;1.70;;;;;;;16.37;71.29;99967.13;4996069;28;41117;-83
2023/09/04 01:48:27;;;;;;;3.00;1.73;;;;;;;16.35;72.15;99962.81;4980077;28;40149;-82
2023/09/04 01:50:55;;;;;;;2.03;1.77;;;;;;;16.33;72.56;99954.06;4995752;28;41560;-82
2023/09/04 01:53:24;;;;;;;2.40;1.73;;;;;;;16.19;72.40;99940.81;4995666;28;43195;-83
2023/09/04 01:55:51;;;;;;;2.30;2.10;;;;;;;16.27;72.75;99965.19;4995874;28;42246;-80
2023/09/04 01:58:19;;;;;;;2.20;1.80;;;;;;;16.27;72.24;99967.84;4979728;28;39929;-83
2023/09/04 02:00:47;;;;;;;2.40;2.20;;;;;;;16.14;72.32;99949.97;4996046;28;41864;-81
2023/09/04 02:03:14;;;;;;;3.03;2.00;;;;;;;16.22;72.67;99959.28;5012472;28;43973;-80
2023/09/04 02:05:42;;;;;;;2.27;2.07;;;;;;;16.20;73.13;99963.88;4995307;28;41170;-83
2023/09/04 02:08:10;;;;;;;2.73;1.80;;;;;;;16.16;72.92;99969.44;4994017;28;39969;-84
2023/09/04 02:10:39;;;;;;;2.73;2.10;;;;;;;16.03;72.99;99952.53;4978427;28;40319;-80
2023/09/04 02:13:07;;;;;;;2.57;2.00;;;;;;;16.11;73.71;99970.69;4994746;28;42685;-85
2023/09/04 02:15:36;;;;;;;2.03;1.90;;;;;;;16.08;73.62;99965.56;4978206;28;41555;-83
2023/09/04 02:18:04;;;;;;;2.77;2.17;;;;;;;16.07;73.94;99977.22;4994899;28;41698;-84
2023/09/04 02:20:32;;;;;;;2.33;2.13;;;;;;;15.93;74.30;99956.78;4994222;28;41942;-80
2023/09/04 02:23:00;;;;;;;4.07;2.20;;;;;;;16.02;73.73;99972.19;4994886;28;43834;-82
2023/09/04 02:25:27;;;;;;;1.97;1.77;;;;;;;16.00;73.84;99976.78;4994403;28;42469;-85
2023/09/04 02:27:56;;;;;;;1.93;1.83;;;;;;;15.98;73.55;99975.16;4994859;28;40082;-83
2023/09/04 02:30:24;;;;;;;1.83;1.70;;;;;;;15.95;73.33;99976.22;4994240;28;42719;-80
2023/09/04 02:32:51;;;;;;;2.23;2.00;;;;;;;15.81;73.68;99952.25;4978285;28;42993;-83
2023/09/04 02:35:19;;;;;;;2.17;1.80;;;;;;;15.84;72.98;99968.06;4994085;28;41887;-81
2023/09/04 02:37:46;;;;;;;4.33;2.10;;;;;;;15.88;72.61;99972.25;4997151;28;40016;-80
2023/09/04 02:40:14;;;;;;;3.20;1.80;;;;;;;15.86;72.51;99981.31;4988571;28;40382;-80
2023/09/04 02:42:42;;;;;;;1.80;1.70;;;;;;;15.72;72.38;99967.06;4985110;28;42109;-84
2023/09/04 02:45:11;;;;;;;2.33;1.83;;;;;;;15.76;72.45;99970.38;4979151;28;41145;-83
2023/09/04 02:47:38;;;;;;;2.23;1.80;;;;;;;15.76;72.23;99981.06;4979628;28;40180;-82
2023/09/04 02:50:07;;;;;;;1.90;1.80;;;;;;;15.71;72.21;99972.50;4978921;28;40776;-84
2023/09/04 02:52:35;;;;;;;2.03;1.90;;;;;;;15.69;72.96;99974.44;4995483;28;42954;-83
2023/09/04 02:55:05;;;;;;;2.57;2.07;;;;;;;15.66;73.76;99963.94;4995326;28;42096;-83
2023/09/04 02:57:34;;;;;;;2.27;2.07;;;;;;;15.62;73.36;99965.09;4979475;28;38868;-80
2023/09/04 03:00:03;;;;;;;2.03;1.80;;;;;;;15.59;74.00;99962.63;5012881;28;42802;-81
2023/09/04 03:02:34;;;;;;;2.10;1.90;;;;;;;15.57;74.02;99970.75;4979012;28;41861;-82
2023/09/04 03:05:01;;;;;;;2.20;1.97;;;;;;;15.10;74.54;99888.38;5012036;28;42264;-83
2023/09/04 03:07:30;;;;;;;2.87;2.27;;;;;;;15.54;74.42;99968.25;4977257;28;40206;-83
2023/09/04 03:09:59;;;;;;;2.10;1.93;;;;;;;15.50;74.92;99955.19;4977749;28;40547;-86
2023/09/04 03:12:27;;;;;;;2.30;2.10;;;;;;;15.50;74.72;99957.84;4977830;28;41688;-84
2023/09/04 03:14:56;;;;;;;2.60;2.20;;;;;;;15.48;74.65;99959.75;4977495;28;42466;-83
2023/09/04 03:17:25;;;;;;;2.17;1.97;;;;;;;15.46;74.02;99963.38;4977628;28;40350;-84
2023/09/04 03:19:56;;;;;;;2.43;2.10;;;;;;;15.45;74.18;99967.00;4993900;28;42728;-84
2023/09/04 03:22:25;;;;;;;2.53;2.00;;;;;;;15.17;73.92;99923.53;4977803;28;42732;-81
2023/09/04 03:24:53;;;;;;;1.80;1.70;;;;;;;15.29;73.93;99944.94;4993628;28;42523;-83
2023/09/04 03:27:23;;;;;;;2.30;2.10;;;;;;;15.41;73.91;99970.84;4977552;28;40400;-82
2023/09/04 03:29:50;;;;;;;1.90;1.70;;;;;;;15.27;73.74;99949.53;4993495;28;42135;-82
2023/09/04 03:32:20;;;;;;;2.40;2.20;;;;;;;15.38;73.95;99964.84;4977437;28;43103;-84
2023/09/04 03:34:48;;;;;;;2.70;2.50;;;;;;;15.33;74.79;99957.13;4977159;28;42608;-82
2023/09/04 03:37:17;;;;;;;2.90;2.37;;;;;;;15.32;74.99;99955.44;4985870;28;40811;-82
2023/09/04 03:39:44;;;;;;;2.27;2.07;;;;;;;15.29;75.48;99952.97;4982183;28;40450;-82
2023/09/04 03:42:12;;;;;;;2.57;2.30;;;;;;;15.28;75.67;99947.72;4994682;28;41862;-81
2023/09/04 03:44:40;;;;;;;2.80;2.30;;;;;;;15.25;75.30;99954.09;4994502;28;42358;-81
2023/09/04 03:47:07;;;;;;;2.43;2.23;;;;;;;15.24;75.48;99957.72;4994655;28;40969;-83
2023/09/04 03:49:35;;;;;;;4.53;2.43;;;;;;;15.18;75.24;99947.47;5011916;28;42803;-83
2023/09/04 03:52:03;;;;;;;2.40;2.20;;;;;;;15.20;75.03;99953.56;4978238;28;42828;-83
2023/09/04 03:54:33;;;;;;;1.83;1.73;;;;;;;15.19;74.85;99953.66;4994117;28;42283;-80
2023/09/04 03:57:01;;;;;;;2.20;2.00;;;;;;;15.17;74.49;99956.41;4997503;28;39638;-81
2023/09/04 03:59:28;;;;;;;2.23;2.03;;;;;;;15.15;74.57;99968.13;4997253;28;42790;-82
2023/09/04 04:01:56;;;;;;;2.43;2.00;;;;;;;15.12;74.18;99969.19;4995955;28;42750;-83
2023/09/04 04:04:23;;;;;;;2.00;1.83;;;;;;;15.08;74.18;99965.00;4980144;28;41075;-83
2023/09/04 04:06:51;;;;;;;1.83;1.50;;;;;;;14.93;74.13;99948.16;4996760;28;40936;-82
2023/09/04 04:09:21;;;;;;;2.63;1.60;;;;;;;14.93;74.29;99947.28;5013600;28;41779;-82
2023/09/04 04:11:50;;;;;;;1.63;1.53;;;;;;;14.98;74.36;99958.53;4996616;28;43068;-86
2023/09/04 04:14:18;;;;;;;1.93;1.73;;;;;;;14.91;74.43;99951.88;4988694;28;42437;-81
2023/09/04 04:16:47;;;;;;;4.27;2.00;;;;;;;14.95;74.30;99972.94;4980474;28;40577;-86
2023/09/04 04:19:15;;;;;;;2.60;2.13;;;;;;;14.93;74.61;99964.16;4996352;28;41677;-85
2023/09/04 04:21:43;;;;;;;5.73;2.23;;;;;;;14.92;74.82;99973.13;4996391;28;42659;-84
2023/09/04 04:24:11;;;;;;;1.87;1.73;;;;;;;14.91;74.56;99973.19;4979699;28;41411;-82
2023/09/04 04:26:39;;;;;;;2.10;1.77;;;;;;;14.88;74.56;99976.06;4980315;28;39725;-85
2023/09/04 04:29:08;;;;;;;2.23;2.03;;;;;;;14.90;74.59;99982.16;4996152;28;41985;-83
2023/09/04 04:31:36;;;;;;;1.83;1.73;;;;;;;14.90;74.24;99984.81;4979444;28;41913;-83
2023/09/04 04:34:04;;;;;;;1.90;1.80;;;;;;;14.89;74.35;99977.78;4996017;28;42619;-84
2023/09/04 04:36:32;;;;;;;2.07;1.83;;;;;;;14.88;74.39;99970.72;4995802;28;40879;-82
2023/09/04 04:38:59;;;;;;;2.87;1.67;;;;;;;14.89;74.86;99975.09;4980273;28;40761;-84
2023/09/04 04:41:27;;;;;;;2.10;1.90;;;;;;;14.89;75.42;99978.63;4980727;28;42175;-85
2023/09/04 04:43:55;;;;;;;2.60;2.33;;;;;;;14.85;75.47;99976.25;5014156;28;42926;-84
2023/09/04 04:46:24;;;;;;;2.10;1.87;;;;;;;14.90;75.24;99988.34;4997135;28;41205;-81
2023/09/04 04:48:52;;;;;;;2.77;2.53;;;;;;;14.81;75.43;99964.06;4996810;28;42746;-84
2023/09/04 04:51:20;;;;;;;3.70;2.10;;;;;;;14.92;75.92;99980.25;4996732;28;43749;-81
2023/09/04 04:53:48;;;;;;;3.40;2.73;;;;;;;14.93;76.08;99979.31;4996855;28;42363;-83
2023/09/04 04:56:16;;;;;;;3.67;2.37;;;;;;;14.92;75.92;99986.44;4989113;28;39939;-82
2023/09/04 04:58:43;;;;;;;3.33;2.20;;;;;;;14.88;75.96;99981.38;4996928;28;41655;-83
2023/09/04 05:01:11;;;;;;;2.30;2.10;;;;;;;15.00;75.89;100001.97;5014203;28;42715;-84
2023/09/04 05:03:41;;;;;;;2.33;1.90;;;;;;;15.02;75.58;100000.94;4980549;28;41291;-81
2023/09/04 05:06:10;;;;;;;2.00;1.90;;;;;;;15.05;75.64;100003.41;4978580;28;38985;-83
2023/09/04 05:08:38;;;;;;;2.07;1.87;;;;;;;15.09;75.35;100012.91;4977798;28;41808;-80
2023/09/04 05:11:06;;;;;;;2.00;1.80;;;;;;;15.04;74.93;100006.16;4995348;28;42451;-84
2023/09/04 05:13:38;;;;;;;2.37;2.00;;;;;;;15.14;74.91;100015.31;4992537;28;42176;-81
2023/09/04 05:16:06;;;;;;;2.20;2.00;;;;;;;15.15;74.69;100022.34;4995148;28;40833;-81
2023/09/04 05:18:36;;;;;;;2.27;2.07;;;;;;;15.19;74.58;100020.38;4979033;28;40926;-81
2023/09/04 05:21:07;;;;;;;2.13;1.93;;;;;;;15.21;74.63;100016.63;4978377;28;41528;-81
2023/09/04 05:23:35;;;;;;;2.30;1.93;;;;;;;15.23;74.62;100014.72;4993107;28;42752;-80
2023/09/04 05:26:02;;;;;;;2.73;2.20;;;;;;;15.29;74.51;100014.34;4978516;28;39261;-80
2023/09/04 05:28:30;;;;;;;2.60;1.90;;;;;;;15.34;74.20;100016.69;4995125;28;41635;-81
2023/09/04 05:31:03;;;;;;;2.30;2.07;;;;;;;15.35;74.48;100013.94;4994651;28;42998;-86
2023/09/04 05:33:31;;;;;;;2.23;1.90;;;;;;;15.37;74.03;100012.03;4978414;28;41073;-87
2023/09/04 05:35:59;;;;;;;2.00;1.80;;;;;;;15.42;74.07;100004.59;4994796;28;41172;-82
2023/09/04 05:38:28;;;;;;;2.20;2.00;;;;;;;15.57;73.79;100002.81;4995615;28;41584;-83
2023/09/04 05:40:57;;;;;;;1.80;1.70;;;;;;;15.70;73.38;100009.03;4995587;28;42561;-81
2023/09/04 05:43:25;;;;;;;2.90;1.93;;;;;;;15.80;73.57;100011.97;4995559;28;41102;-82
2023/09/04 05:45:53;;;;;;;2.20;2.00;;;;;;;15.84;73.60;99994.78;4995085;28;40339;-79
2023/09/04 05:48:20;;;;;;;3.00;2.37;;;;;;;16.08;73.59;100011.84;4979116;28;40825;-80
2023/09/04 05:50:48;;;;;;;2.90;2.57;;;;;;;16.12;73.60;100005.34;4995187;28;41449;-80
2023/09/04 05:53:15;;;;;;;2.60;2.13;;;;;;;16.25;73.68;100016.06;4979385;28;42684;-78
2023/09/04 05:55:44;;;;;;;3.57;2.13;;;;;;;16.09;73.31;99970.78;5002229;28;38834;-77
2023/09/04 05:58:12;;;;;;;3.13;2.70;;;;;;;16.34;73.38;99998.53;4981104;28;40268;-79
2023/09/04 06:00:40;;;;;;;2.60;2.30;;;;;;;16.52;73.74;100008.84;4978774;28;41696;-81
2023/09/04 06:03:09;;;;;;;2.20;2.00;;;;;;;16.72;73.02;100010.16;4995131;28;42453;-77
2023/09/04 06:05:36;;;;;;;2.27;2.07;;;;;;;16.99;72.55;100006.53;4978572;28;40576;-78
2023/09/04 06:08:05;;;;;;;3.53;2.50;;;;;;;17.22;71.74;100014.63;4978577;28;40712;-78
2023/09/04 06:10:33;;;;;;;4.37;2.60;;;;;;;17.44;71.19;100013.09;5011876;28;42723;-80
2023/09/04 06:13:02;;;;;;;2.43;2.23;;;;;;;17.76;70.21;100021.50;4979000;28;41443;-81
2023/09/04 06:15:29;;;;;;;2.70;2.40;;;;;;;17.94;69.38;100001.38;4994444;28;38940;-82
2023/09/04 06:17:57;;;;;;;2.60;2.40;;;;;;;17.99;69.39;100020.66;4977023;28;40633;-81
2023/09/04 06:20:25;;;;;;;2.97;2.67;;;;;;;17.92;70.10;100014.91;5011224;28;42894;-84
2023/09/04 06:22:53;;;;;;;2.53;2.33;;;;;;;17.83;70.24;99993.28;4993942;28;42361;-81
2023/09/04 06:25:20;;;;;;;4.17;2.70;;;;;;;17.82;70.46;99996.91;4977492;28;41470;-84
2023/09/04 06:27:48;;;;;;;2.60;2.40;;;;;;;17.88;70.75;100001.84;4978161;28;42386;-85
2023/09/04 06:30:17;;;;;;;3.20;2.90;;;;;;;17.99;70.52;99999.22;5011399;28;43025;-82
2023/09/04 06:32:45;;;;;;;4.73;2.80;;;;;;;18.01;70.94;99986.56;4994618;28;43127;-83
2023/09/04 06:35:12;;;;;;;3.63;2.23;;;;;;;18.24;70.65;100001.75;4977428;28;38923;-83
2023/09/04 06:37:40;;;;;;;3.00;2.40;;;;;;;18.36;70.28;100004.47;4994706;28;41744;-83
2023/09/04 06:40:09;;;;;;;2.40;2.20;;;;;;;18.32;70.10;99985.06;4994835;28;42944;-83
2023/09/04 06:42:36;;;;;;;2.70;2.50;;;;;;;18.44;69.17;99994.00;4995292;28;41411;-84
2023/09/04 06:45:05;;;;;;;2.50;2.30;;;;;;;18.51;69.58;99985.38;4978650;28;39700;-86
2023/09/04 06:47:34;;;;;;;2.63;2.03;;;;;;;18.80;69.36;100007.28;4978968;28;41665;-85
2023/09/04 06:50:02;;;;;;;2.33;2.10;;;;;;;18.93;69.01;100012.53;4978141;28;41813;-87
2023/09/04 06:52:30;;;;;;;3.43;2.33;;;;;;;19.03;68.58;99992.06;4978734;28;41148;-83
2023/09/04 06:54:57;;;;;;;2.00;1.90;;;;;;;19.31;68.08;99996.91;4994879;28;41112;-85
2023/09/04 06:57:25;;;;;;;2.13;1.93;;;;;;;19.57;67.09;99991.31;4959115;28;42174;-86
2023/09/04 06:59:53;;;;;;;2.70;2.10;;;;;;;19.79;67.41;100011.91;4969545;28;41497;-83
2023/09/04 07:02:20;;;;;;;3.80;2.20;;;;;;;19.99;66.79;100009.28;4977826;28;40962;-84
2023/09/04 07:04:49;;;;;;;2.43;2.20;;;;;;;20.20;66.52;100000.41;4977840;28;39068;-77
2023/09/04 07:07:17;;;;;;;2.67;2.47;;;;;;;20.58;65.85;100010.63;4984475;28;40965;-78
2023/09/04 07:09:44;;;;;;;2.67;2.20;;;;;;;20.98;64.83;100025.06;5010185;28;42812;-79
2023/09/04 07:12:13;;;;;;;2.63;2.13;;;;;;;21.21;64.09;100025.78;5010587;28;43306;-80
2023/09/04 07:14:41;;;;;;;2.20;2.00;;;;;;;21.19;64.15;100010.72;4976673;28;40707;-79
2023/09/04 07:17:08;;;;;;;4.03;2.30;;;;;;;21.19;62.99;100008.88;4993005;28;40817;-83
2023/09/04 07:19:36;;;;;;;2.03;1.83;;;;;;;21.29;63.33;100011.63;5010745;28;42721;-85
2023/09/04 07:22:05;;;;;;;2.90;2.10;;;;;;;21.50;63.57;100012.41;4977295;28;41806;-86
2023/09/04 07:24:33;;;;;;;3.20;2.30;;;;;;;21.70;63.25;100007.91;4976624;28;38738;-87
2023/09/04 07:27:01;;;;;;;2.47;2.27;;;;;;;21.93;63.18;100016.63;4977350;28;40570;-84
2023/09/04 07:29:28;;;;;;;2.07;1.77;;;;;;;22.11;62.23;100025.78;4992986;28;43055;-85
2023/09/04 07:31:56;;;;;;;2.63;2.17;;;;;;;22.23;60.43;100024.63;5013924;28;42946;-87
2023/09/04 07:34:24;;;;;;;2.23;1.90;;;;;;;22.51;57.94;100039.09;4979608;28;39117;-83
2023/09/04 07:36:52;;;;;;;3.77;2.07;;;;;;;22.69;58.89;100037.41;4980136;28;40695;-83
2023/09/04 07:39:21;;;;;;;2.03;1.83;;;;;;;22.85;57.92;100040.41;4980706;28;42819;-87
2023/09/04 07:41:49;;;;;;;2.77;1.90;;;;;;;23.15;58.39;100043.84;4981423;28;42194;-83
2023/09/04 07:44:16;;;;;;;2.27;2.00;;;;;;;23.52;54.00;100068.22;4992532;28;40023;-92
2023/09/04 07:46:44;;;;;;;2.60;2.23;;;;;;;23.90;52.02;100062.63;4970803;28;42110;-82
2023/09/04 07:49:12;;;;;;;2.10;1.90;;;;;;;24.14;54.23;100050.34;5000015;28;42828;-81
2023/09/04 07:51:40;;;;;;;2.53;2.33;;;;;;;24.39;54.46;100041.50;5014216;28;42444;-79
2023/09/04 07:54:07;;;;;;;1.93;1.83;;;;;;;25.14;52.27;100069.03;4980722;28;40069;-80
2023/09/04 07:56:36;;;;;;;3.03;2.10;;;;;;;26.11;49.64;100064.94;4997398;28;42512;-83
2023/09/04 07:59:04;;;;;;;2.80;2.00;;;;;;;27.20;48.15;100072.84;4980390;28;44300;-83
2023/09/04 08:01:32;;;;;;;1.73;1.63;;;;;;;27.77;45.82;100089.06;4996597;28;41209;-85
2023/09/04 08:04:01;;;;;;;2.30;2.10;;;;;;;27.65;45.72;100085.00;4980609;28;39896;-81
2023/09/04 08:06:29;;;;;;;3.10;2.73;;;;;;;27.51;45.89;100081.09;5013098;28;42752;-81
2023/09/04 08:08:57;;;;;;;2.80;2.43;;;;;;;27.84;44.50;100079.13;4978840;28;41998;-80
2023/09/04 08:11:24;;;;;;;2.83;2.00;;;;;;;28.50;41.92;100122.22;4995476;28;42141;-80
2023/09/04 08:13:53;;;;;;;2.67;2.20;;;;;;;29.21;41.71;100120.16;5013132;28;40917;-88
2023/09/04 08:16:21;;;;;;;3.23;2.30;;;;;;;29.19;40.40;100112.16;4996009;28;40606;-86
2023/09/04 08:18:48;;;;;;;4.83;1.77;;;;;;;28.76;41.19;100102.78;4996224;28;43784;-84
2023/09/04 08:21:16;;;;;;;2.20;2.00;;;;;;;28.60;40.13;100128.28;4996160;28;42175;-84
2023/09/04 08:23:43;;;;;;;1.83;1.73;;;;;;;28.57;40.92;100122.34;4979614;28;39344;-84
2023/09/04 08:26:14;;;;;;;2.47;2.07;;;;;;;29.03;41.03;100117.78;4979086;28;43137;-81
2023/09/04 08:28:41;;;;;;;2.20;1.60;;;;;;;29.92;38.05;100138.69;4995796;28;42932;-82
2023/09/04 08:31:11;;;;;;;1.73;1.63;;;;;;;30.86;37.80;100131.44;4995743;28;42270;-84
2023/09/04 08:33:38;;;;;;;2.13;1.90;;;;;;;31.06;36.57;100124.25;4995343;28;38770;-86
2023/09/04 08:36:06;;;;;;;2.37;1.93;;;;;;;30.75;37.88;100126.50;4979251;28;40759;-84
2023/09/04 08:38:34;;;;;;;2.60;1.90;;;;;;;30.16;37.79;100121.19;4996407;28;42845;-85
2023/09/04 08:41:05;;;;;;;1.60;1.50;;;;;;;30.18;38.69;100107.28;4996518;28;42237;-84
2023/09/04 08:43:33;;;;;;;1.73;1.63;;;;;;;30.40;37.13;100122.72;4980322;28;38853;-84
2023/09/04 08:46:02;;;;;;;1.87;1.77;;;;;;;30.82;36.00;100138.34;4977010;28;41592;-86
2023/09/04 08:48:32;;;;;;;2.17;1.63;;;;;;;31.20;34.28;100135.34;4961066;28;42082;-84
2023/09/04 08:51:00;;;;;;;1.80;1.70;;;;;;;31.32;35.17;100136.50;4960792;28;41384;-83
2023/09/04 08:53:28;;;;;;;2.00;1.53;;;;;;;31.37;35.16;100131.28;4977024;28;40788;-85
2023/09/04 08:55:56;;;;;;;1.97;1.83;;;;;;;31.77;34.37;100140.66;4979733;28;40626;-88
2023/09/04 08:58:24;;;;;;;1.53;1.47;;;;;;;32.98;34.01;100139.84;5013902;28;42828;-83
2023/09/04 09:00:52;;;;;;;1.75;1.63;;;;;;;34.15;31.74;100152.81;4996020;28;42366;-83
2023/09/04 09:03:21;;;;;;;3.10;1.67;;;;;;;35.04;30.90;100139.03;4996492;28;39181;-86
2023/09/04 09:05:50;;;;;;;1.65;1.55;;;;;;;35.73;28.90;100164.75;4982501;28;41039;-83
2023/09/04 09:08:18;;;;;;;1.77;1.67;;;;;;;36.55;28.15;100147.66;4996596;28;42883;-85
2023/09/04 09:10:47;;;;;;;2.10;1.70;;;;;;;38.20;26.81;100160.66;4978569;28;42516;-83
2023/09/04 09:13:16;;;;;;;2.58;1.75;;;;;;;39.35;24.84;100150.13;4973141;28;20237;-82
2023/09/04 09:15:44;;;;;;;1.60;1.50;;;;;;;39.78;24.22;100179.94;4990705;28;40824;-86
2023/09/04 09:18:11;;;;;;;1.73;1.30;;;;;;;39.57;24.65;100166.00;4992155;28;43737;-81
2023/09/04 09:20:42;;;;;;;2.15;1.70;;;;;;;39.13;25.40;100154.75;4991389;28;41149;-82
2023/09/04 09:23:15;;;;;;;1.85;1.40;;;;;;;38.16;25.71;100142.88;4994526;28;39291;-82
2023/09/04 09:25:43;;;;;;;1.73;1.63;;;;;;;37.08;25.65;100137.78;4993908;28;42028;-82
2023/09/04 09:28:10;;;;;;;2.67;1.60;;;;;;;36.48;25.97;100149.66;4994416;28;42917;-82
2023/09/04 09:30:39;;;;;;;1.70;1.60;;;;;;;36.25;26.92;100142.13;4994613;28;43376;-89
2023/09/04 09:33:12;;;;;;;2.53;1.63;;;;;;;36.25;26.50;100144.03;5011896;28;40892;-84
2023/09/04 09:35:41;;;;;;;2.65;1.50;;;;;;;35.79;28.36;100126.09;4993858;28;41394;-86
2023/09/04 09:38:08;;;;;;;1.40;1.30;;;;;;;35.55;28.72;100108.53;4994814;28;44009;-89
2023/09/04 09:40:38;;;;;;;1.88;1.77;;;;;;;35.22;28.08;100117.09;4979405;28;41126;-82
2023/09/04 09:43:06;;;;;;;1.60;1.50;;;;;;;34.85;29.76;100091.34;4979357;28;40071;-82
2023/09/04 09:45:36;;;;;;;1.95;1.63;;;;;;;34.59;29.53;100083.22;4978574;28;42003;-83
2023/09/04 09:48:05;;;;;;;2.00;1.70;;;;;;;34.35;30.11;100089.53;4979093;28;41961;-80
2023/09/04 09:50:32;;;;;;;1.80;1.70;;;;;;;33.86;29.97;100086.34;4994752;28;42511;-82
2023/09/04 09:53:02;;;;;;;1.60;1.47;;;;;;;33.49;29.17;100106.28;4994582;28;38869;-83
2023/09/04 09:55:34;;;;;;;1.60;1.50;;;;;;;33.41;29.86;100070.78;4979959;28;40751;-84
2023/09/04 09:58:04;;;;;;;1.10;1.10;;;;;;;33.68;30.07;100088.03;4995456;28;41591;-88
2023/09/04 10:00:32;;;;;;;2.10;1.60;;;;;;;33.28;28.48;100092.75;4979016;28;41398;-84
2023/09/04 10:02:59;;;;;;;1.60;1.50;;;;;;;33.16;29.19;100078.81;4995767;28;38955;-84
2023/09/04 10:05:28;;;;;;;1.40;1.30;;;;;;;33.17;29.71;100081.34;4994371;28;41870;-86
2023/09/04 10:08:00;;;;;;;1.53;1.43;;;;;;;33.35;30.08;100072.50;4977011;28;41436;-84
2023/09/04 10:10:29;;;;;;;1.40;1.30;;;;;;;33.73;30.15;100061.63;4977711;28;41190;-82
2023/09/04 10:13:04;;;;;;;1.40;1.30;;;;;;;33.73;29.63;100069.00;4994391;28;40873;-85
2023/09/04 10:15:37;;;;;;;2.50;1.60;;;;;;;33.33;27.98;100092.97;4993141;28;41864;-82
2023/09/04 10:18:09;;;;;;;1.70;1.60;;;;;;;32.75;30.00;100070.81;4977728;28;42509;-81
2023/09/04 10:20:37;;;;;;;1.60;1.50;;;;;;;32.27;29.60;100073.63;4977386;28;41237;-84
2023/09/04 10:23:08;;;;;;;2.37;1.60;;;;;;;32.01;30.86;100065.28;4977954;28;38960;-82
2023/09/04 10:25:43;;;;;;;1.57;1.40;;;;;;;31.71;31.27;100035.44;4993725;28;41095;-84
2023/09/04 10:28:19;;;;;;;1.67;1.57;;;;;;;32.04;32.63;100034.72;4977753;28;42765;-82
2023/09/04 10:30:54;;;;;;;1.90;1.50;;;;;;;32.85;30.96;100045.69;4990498;28;42189;-79
2023/09/04 10:33:21;;;;;;;1.70;1.60;;;;;;;33.50;29.63;100053.88;4987883;28;41652;-82
2023/09/04 10:35:53;;;;;;;1.50;1.30;;;;;;;33.88;28.39;100056.69;4993760;28;41588;-80
2023/09/04 10:38:22;;;;;;;1.50;1.40;;;;;;;34.01;28.74;100049.47;4989810;28;43679;-80
2023/09/04 10:40:50;;;;;;;1.50;1.40;;;;;;;33.87;27.66;100055.03;4977806;28;42416;-79
2023/09/04 10:43:17;;;;;;;2.13;1.80;;;;;;;34.31;27.97;100045.09;4987197;28;40744;-80
2023/09/04 10:46:04;;;;;;;1.70;1.60;;;;;;;35.03;26.73;100048.38;4978361;28;40627;-81
2023/09/04 10:48:42;;;;;;;2.13;1.55;;;;;;;35.33;26.23;100065.94;4992122;28;42762;-82
2023/09/04 10:51:30;;;;;;;1.80;1.50;;;;;;;35.16;25.17;100060.13;4975277;28;41342;-81
2023/09/04 10:53:59;;;;;;;3.63;1.70;;;;;;;35.35;26.25;100057.44;4992574;28;40340;-80
2023/09/04 10:56:27;;;;;;;2.03;1.83;;;;;;;35.64;26.74;100026.38;4994333;28;42172;-85
2023/09/04 10:59:02;;;;;;;1.70;1.60;;;;;;;35.70;26.14;100039.25;4994038;28;41930;-82
2023/09/04 11:01:36;;;;;;;1.47;1.37;;;;;;;35.26;26.25;100043.94;4991558;28;42407;-80
2023/09/04 11:04:06;;;;;;;1.77;1.53;;;;;;;34.97;27.14;100027.28;5002770;28;41069;-82
2023/09/04 11:06:34;;;;;;;1.47;1.37;;;;;;;34.38;25.94;99990.88;5008218;28;42030;-83
2023/09/04 11:09:03;;;;;;;1.63;1.53;;;;;;;34.80;29.02;99992.06;5015913;28;42559;-89
2023/09/04 11:11:33;;;;;;;1.33;1.23;;;;;;;34.90;26.06;100028.16;5014536;28;42374;-86
2023/09/04 11:14:02;;;;;;;1.77;1.67;;;;;;;34.84;25.96;100017.22;4980320;28;39055;-87
2023/09/04 11:16:40;;;;;;;1.67;1.57;;;;;;;34.84;27.21;99995.19;4980219;28;41371;-85
2023/09/04 11:19:11;;;;;;;1.73;1.57;;;;;;;35.45;27.65;99991.63;4960769;28;41305;-85
2023/09/04 11:21:47;;;;;;;1.85;1.52;;;;;;;36.64;25.06;100019.28;4991544;28;41909;-84
2023/09/04 11:24:14;;;;;;;1.60;1.35;;;;;;;38.16;23.15;100027.47;4996090;28;40561;-85
2023/09/04 11:26:42;;;;;;;1.50;1.40;;;;;;;39.55;22.44;100026.78;4996727;28;41868;-85
2023/09/04 11:29:09;;;;;;;1.60;1.50;;;;;;;40.16;22.04;100015.34;4979990;28;42029;-85
2023/09/04 11:31:39;;;;;;;1.75;1.30;;;;;;;39.80;21.01;100043.75;4996665;28;42331;-87
2023/09/04 11:34:06;;;;;;;1.63;1.20;;;;;;;39.36;22.29;100015.97;4980043;28;38881;-87
2023/09/04 11:36:38;;;;;;;2.28;1.80;;;;;;;40.17;21.68;100017.03;4979892;28;41084;-87